Time;durP1;ratioP1;P1;durP2;ratioP2;P2;SDS_P1;SDS_P2;PMS_P1;PMS_P2;Temp;Humidity;BMP_temperature;BMP_pressure;BME280_temperature;BME280_humidity;BME280_pressure;Samples;Min_cycle;Max_cycle;Signal;HPM_P1;HPM_P2
2021/01/14 00:04:04;;;;;;;3.77;1.70;;;;;;;2.18;100.00;98546.94;3799075;77;394273;-74
2021/01/14 00:09:25;;;;;;;1.00;0.80;;;;;;;2.24;100.00;98548.22;3799373;77;392162;-73
2021/01/14 00:14:47;;;;;;;1.10;0.87;;;;;;;2.26;100.00;98542.64;3799471;77;387834;-74
2021/01/14 00:20:11;;;;;;;2.90;0.80;;;;;;;2.21;100.00;98552.44;3799005;77;394048;-74
2021/01/14 00:25:32;;;;;;;1.10;0.70;;;;;;;2.37;100.00;98581.05;3799821;77;387762;-74
2021/01/14 00:30:54;;;;;;;1.00;0.50;;;;;;;2.43;100.00;98579.61;3799371;77;387917;-74
2021/01/14 00:36:15;;;;;;;4.70;3.60;;;;;;;2.36;100.00;98599.83;3798941;77;393965;-74
2021/01/14 00:41:38;;;;;;;3.60;0.83;;;;;;;2.32;100.00;98616.41;3799163;77;394175;-73
2021/01/14 00:46:59;;;;;;;0.93;0.63;;;;;;;1.52;100.00;98660.11;3799953;77;383590;-74
2021/01/14 00:52:21;;;;;;;0.80;0.50;;;;;;;0.65;100.00;98642.91;3800259;77;383575;-74
2021/01/14 00:57:42;;;;;;;0.80;0.40;;;;;;;0.97;100.00;98635.85;3800468;77;383581;-74
2021/01/14 01:03:03;;;;;;;1.10;0.60;;;;;;;1.16;100.00;98627.84;3800189;77;385738;-74
2021/01/14 01:08:24;;;;;;;0.80;0.40;;;;;;;1.18;100.00;98647.25;3800148;77;384157;-74
2021/01/14 01:13:45;;;;;;;0.80;0.50;;;;;;;1.17;100.00;98659.22;3799980;77;383815;-74
2021/01/14 01:19:08;;;;;;;0.80;0.50;;;;;;;1.21;100.00;98664.14;3800520;77;383569;-74
2021/01/14 01:24:30;;;;;;;0.90;0.50;;;;;;;1.25;100.00;98672.39;3800333;77;383840;-73
2021/01/14 01:29:51;;;;;;;0.80;0.67;;;;;;;1.35;100.00;98684.05;3800135;77;392115;-74
2021/01/14 01:35:12;;;;;;;0.80;0.60;;;;;;;1.36;100.00;98713.52;3800062;77;383553;-74
2021/01/14 01:40:33;;;;;;;0.80;0.40;;;;;;;1.28;100.00;98710.41;3800128;77;383840;-74
2021/01/14 01:45:55;;;;;;;0.80;0.40;;;;;;;1.34;100.00;98718.49;3800113;77;383780;-74
2021/01/14 01:51:16;;;;;;;0.90;0.80;;;;;;;1.42;100.00;98715.38;3800367;77;383572;-74
2021/01/14 01:56:37;;;;;;;0.80;0.40;;;;;;;1.45;100.00;98719.56;3800511;77;383788;-74
2021/01/14 02:02:17;;;;;;;1.33;1.23;;;;;;;1.39;100.00;98727.70;3800031;77;383832;-74
2021/01/14 02:07:41;;;;;;;0.80;0.40;;;;;;;1.41;100.00;98739.58;3800487;77;383592;-74
2021/01/14 02:13:21;;;;;;;0.80;0.40;;;;;;;1.41;100.00;98744.41;3800461;77;383836;-74
2021/01/14 02:18:43;;;;;;;0.80;0.50;;;;;;;1.29;100.00;98743.14;3773296;77;383580;-74
2021/01/14 02:24:08;;;;;;;1.13;1.03;;;;;;;1.40;100.00;98729.87;3799775;77;383788;-74
2021/01/14 02:29:29;;;;;;;1.73;0.70;;;;;;;1.42;100.00;98744.64;3800854;76;389808;-74
2021/01/14 02:34:51;;;;;;;0.80;0.40;;;;;;;1.36;100.00;98752.81;3800426;77;383572;-74
2021/01/14 02:40:12;;;;;;;0.80;0.40;;;;;;;1.29;99.65;98777.01;3798870;77;383765;-74
2021/01/14 02:45:34;;;;;;;0.80;0.40;;;;;;;1.39;93.95;98775.70;3800489;77;383785;-74
2021/01/14 02:50:59;;;;;;;2.60;2.40;;;;;;;1.36;92.93;98781.26;3799800;77;383560;-74
2021/01/14 02:56:24;;;;;;;0.80;0.40;;;;;;;1.19;94.00;98783.47;3801319;77;383564;-74
2021/01/14 03:01:45;;;;;;;0.90;0.67;;;;;;;1.31;94.11;98786.14;3800819;77;390559;-74
2021/01/14 03:07:07;;;;;;;0.90;0.70;;;;;;;1.31;97.35;98791.55;3800656;77;383569;-74
2021/01/14 03:12:28;;;;;;;0.80;0.40;;;;;;;1.28;95.49;98793.04;3800490;77;383580;-74
2021/01/14 03:17:49;;;;;;;0.80;0.50;;;;;;;1.26;94.71;98793.14;3800393;77;383568;-74
2021/01/14 03:23:11;;;;;;;0.90;0.70;;;;;;;1.16;93.00;98788.23;3800145;77;383788;-74
2021/01/14 03:28:33;;;;;;;0.80;0.40;;;;;;;1.17;89.58;98803.36;3800200;77;383805;-74
2021/01/14 03:33:54;;;;;;;0.90;0.50;;;;;;;1.11;89.93;98817.71;3800954;76;383541;-75
2021/01/14 03:39:15;;;;;;;0.80;0.40;;;;;;;1.10;91.27;98808.00;3800245;77;383573;-75
2021/01/14 03:44:37;;;;;;;0.80;0.40;;;;;;;1.04;89.78;98803.16;3799914;77;383614;-74
2021/01/14 03:49:58;;;;;;;0.80;0.40;;;;;;;1.04;89.90;98818.86;3800057;77;383557;-75
2021/01/14 03:55:19;;;;;;;0.80;0.43;;;;;;;0.96;91.46;98825.76;3800370;77;383859;-75
2021/01/14 04:00:41;;;;;;;0.80;0.40;;;;;;;0.73;93.55;98851.75;3800377;77;383568;-75
2021/01/14 04:06:02;;;;;;;0.80;0.50;;;;;;;0.86;93.19;98870.90;3800360;77;383788;-75
2021/01/14 04:11:23;;;;;;;0.80;0.40;;;;;;;0.77;93.68;98880.28;3799955;77;383788;-75
2021/01/14 04:16:44;;;;;;;0.80;0.40;;;;;;;0.75;93.05;98886.05;3800142;77;383957;-75
2021/01/14 04:22:05;;;;;;;0.80;0.40;;;;;;;0.87;90.12;98881.95;3800227;77;383927;-75
2021/01/14 04:27:27;;;;;;;0.80;0.43;;;;;;;0.97;91.03;98880.92;3800239;77;383572;-75
2021/01/14 04:32:48;;;;;;;0.80;0.40;;;;;;;0.97;92.47;98882.85;3800664;77;383595;-75
2021/01/14 04:38:09;;;;;;;0.80;0.40;;;;;;;0.83;94.57;98888.63;3800371;77;383842;-75
2021/01/14 04:43:33;;;;;;;1.23;0.50;;;;;;;0.81;93.87;98909.83;3799564;77;389896;-75
2021/01/14 04:48:55;;;;;;;1.33;1.13;;;;;;;0.63;94.44;98921.23;3799992;77;383575;-75
2021/01/14 04:54:19;;;;;;;0.90;0.50;;;;;;;0.83;93.08;98923.05;3800170;77;385655;-75
2021/01/14 04:59:42;;;;;;;0.80;0.40;;;;;;;0.89;93.40;98922.45;3801399;76;383600;-75
2021/01/14 05:05:06;;;;;;;0.80;0.50;;;;;;;0.94;91.00;98918.72;3800490;77;383556;-75
2021/01/14 05:10:27;;;;;;;3.43;2.30;;;;;;;0.78;92.73;98919.77;3773240;77;383576;-75
2021/01/14 05:15:49;;;;;;;0.80;0.40;;;;;;;0.68;95.31;98933.75;3800526;77;383557;-75
2021/01/14 05:21:10;;;;;;;0.80;0.40;;;;;;;0.71;95.08;98923.03;3800447;77;383603;-75
2021/01/14 05:26:32;;;;;;;0.80;0.40;;;;;;;0.63;96.04;98920.45;3798585;77;383611;-75
2021/01/14 05:31:53;;;;;;;0.80;0.40;;;;;;;0.57;98.96;98919.88;3799119;77;383592;-75
2021/01/14 05:37:15;;;;;;;0.80;0.40;;;;;;;0.68;95.89;98920.21;3798791;77;383591;-75
2021/01/14 05:42:36;;;;;;;0.80;0.50;;;;;;;0.52;98.84;98916.61;3798183;77;383848;-75
2021/01/14 05:48:11;;;;;;;0.80;0.50;;;;;;;0.52;98.00;98926.08;3798975;77;383974;-75
2021/01/14 05:53:35;;;;;;;3.20;0.97;;;;;;;0.48;97.29;98930.59;3799316;77;383599;-75
2021/01/14 05:58:56;;;;;;;0.80;0.50;;;;;;;0.34;98.83;98947.69;3801324;77;383619;-75
2021/01/14 06:04:20;;;;;;;0.90;0.57;;;;;;;0.31;98.01;98959.20;3800003;77;387990;-75
2021/01/14 06:09:44;;;;;;;0.80;0.40;;;;;;;0.54;95.28;98967.13;3801077;77;383767;-75
2021/01/14 06:15:08;;;;;;;0.80;0.40;;;;;;;0.55;94.54;98985.72;3800190;77;383828;-76
2021/01/14 06:20:30;;;;;;;1.47;0.60;;;;;;;0.58;93.95;98995.08;3801270;77;383816;-75
2021/01/14 06:25:55;;;;;;;0.83;0.53;;;;;;;0.48;96.11;99005.01;3800396;77;383572;-75
2021/01/14 06:31:16;;;;;;;1.20;0.50;;;;;;;0.46;96.14;99005.32;3799918;77;383769;-75
2021/01/14 06:36:41;;;;;;;0.80;0.40;;;;;;;0.56;93.91;99003.55;3800436;77;383820;-75
2021/01/14 06:42:05;;;;;;;0.80;0.40;;;;;;;0.55;93.79;99010.66;3800459;77;383753;-75
2021/01/14 06:47:34;;;;;;;0.80;0.40;;;;;;;0.53;95.20;99018.31;3801346;77;383812;-75
2021/01/14 06:52:54;;;;;;;1.00;0.70;;;;;;;0.36;94.80;99026.61;3773610;77;383829;-75
2021/01/14 06:58:21;;;;;;;0.80;0.40;;;;;;;0.33;94.78;99026.72;3800444;77;383533;-75
2021/01/14 07:03:57;;;;;;;1.77;1.20;;;;;;;0.37;95.38;99024.91;3800295;77;383776;-76
2021/01/14 07:09:21;;;;;;;1.10;0.60;;;;;;;0.09;97.89;99044.77;3800605;76;387681;-75
2021/01/14 07:14:45;;;;;;;0.90;0.70;;;;;;;0.04;98.08;99072.80;3800327;77;383773;-75
2021/01/14 07:20:15;;;;;;;0.80;0.40;;;;;;;0.01;99.92;99090.23;3800259;77;383557;-75
2021/01/14 07:25:37;;;;;;;0.80;0.50;;;;;;;-0.05;99.50;99094.27;3800192;77;383994;-75
2021/01/14 07:30:58;;;;;;;0.80;0.63;;;;;;;0.16;96.77;99124.83;3800185;77;387754;-75
2021/01/14 07:36:27;;;;;;;0.80;0.40;;;;;;;0.25;97.15;99136.34;3772455;77;383570;-75
2021/01/14 07:42:00;;;;;;;0.80;0.40;;;;;;;0.34;97.12;99145.99;3800333;77;383820;-75
2021/01/14 07:47:26;;;;;;;0.80;0.50;;;;;;;0.46;96.21;99141.20;3800308;77;383824;-75
2021/01/14 07:52:49;;;;;;;7.90;0.90;;;;;;;0.42;95.74;99141.61;3800729;76;391901;-75
2021/01/14 07:58:22;;;;;;;0.80;0.40;;;;;;;0.46;97.44;99152.80;3800355;77;383589;-75
2021/01/14 08:03:44;;;;;;;0.90;0.60;;;;;;;0.56;97.51;99152.97;3799920;77;385640;-76
2021/01/14 08:09:07;;;;;;;0.80;0.50;;;;;;;0.46;97.61;99152.02;3800349;77;383561;-75
2021/01/14 08:14:38;;;;;;;0.80;0.50;;;;;;;0.44;97.72;99160.48;3800235;77;383831;-75
2021/01/14 08:19:59;;;;;;;0.80;0.50;;;;;;;0.56;97.52;99173.27;3800788;77;383579;-75
2021/01/14 08:25:21;;;;;;;0.97;0.87;;;;;;;0.57;97.01;99182.95;3800452;77;383852;-75
2021/01/14 08:30:43;;;;;;;0.90;0.70;;;;;;;0.51;97.36;99186.98;3800652;77;383867;-75
2021/01/14 08:36:06;;;;;;;1.47;0.70;;;;;;;0.57;98.86;99191.88;3799704;77;390059;-75
2021/01/14 08:41:28;;;;;;;1.73;0.60;;;;;;;0.55;99.44;99199.52;3799487;77;391852;-75
2021/01/14 08:46:52;;;;;;;5.23;1.00;;;;;;;0.68;98.78;99210.66;3800003;77;383571;-75
2021/01/14 08:52:15;;;;;;;0.80;0.50;;;;;;;0.73;97.93;99215.86;3800214;77;383541;-76
2021/01/14 08:57:40;;;;;;;3.77;1.47;;;;;;;0.76;96.86;99223.87;3800102;77;383632;-75
2021/01/14 09:03:01;;;;;;;0.93;0.70;;;;;;;0.65;98.53;99232.96;3801009;76;383557;-75
2021/01/14 09:08:23;;;;;;;0.80;0.60;;;;;;;0.82;98.95;99236.30;3800566;77;383561;-75
2021/01/14 09:13:44;;;;;;;0.90;0.60;;;;;;;0.79;98.22;99241.05;3800402;77;383789;-76
2021/01/14 09:19:20;;;;;;;0.90;0.60;;;;;;;0.74;99.91;99259.41;3800167;77;383568;-76
2021/01/14 09:24:42;;;;;;;2.60;2.03;;;;;;;0.85;99.56;99268.69;3799137;77;396175;-76
2021/01/14 09:30:05;;;;;;;0.90;0.60;;;;;;;0.88;99.90;99286.45;3800325;77;383561;-76
2021/01/14 09:35:27;;;;;;;0.90;0.50;;;;;;;0.97;98.61;99302.61;3800556;77;383595;-76
2021/01/14 09:40:52;;;;;;;1.20;1.10;;;;;;;0.96;98.87;99293.71;3799903;77;389761;-75
2021/01/14 09:46:13;;;;;;;0.80;0.50;;;;;;;1.01;99.87;99305.69;3773509;77;383557;-76
2021/01/14 09:51:38;;;;;;;0.80;0.40;;;;;;;0.99;99.35;99313.34;3800435;77;383800;-76
2021/01/14 09:57:01;;;;;;;0.93;0.70;;;;;;;1.02;99.93;99320.02;3799835;77;391890;-77
2021/01/14 10:02:33;;;;;;;1.10;0.77;;;;;;;1.15;100.00;99327.09;3800988;76;383560;-77
2021/01/14 10:08:01;;;;;;;0.80;0.40;;;;;;;1.25;99.17;99327.47;3801071;76;383564;-77
2021/01/14 10:13:20;;;;;;;1.53;1.43;;;;;;;1.20;100.00;99323.62;3799164;77;396108;-77
2021/01/14 10:18:41;;;;;;;0.83;0.47;;;;;;;1.30;98.97;99320.48;3800483;77;383580;-76
2021/01/14 10:24:02;;;;;;;1.43;1.33;;;;;;;1.25;100.00;99335.59;3800048;77;383537;-75
2021/01/14 10:29:42;;;;;;;1.00;0.87;;;;;;;1.30;99.76;99344.86;3800205;77;383788;-77
2021/01/14 10:35:03;;;;;;;1.60;1.50;;;;;;;1.27;99.53;99329.84;3799615;77;389885;-77
2021/01/14 10:40:26;;;;;;;3.37;1.33;;;;;;;1.49;100.00;99333.55;3798974;77;392112;-77
2021/01/14 10:45:50;;;;;;;1.00;0.80;;;;;;;1.45;100.00;99341.56;3772677;77;388069;-77
2021/01/14 10:51:13;;;;;;;1.43;1.33;;;;;;;1.55;99.61;99346.55;3800082;77;396276;-76
2021/01/14 10:56:34;;;;;;;0.80;0.50;;;;;;;1.59;99.76;99340.13;3799996;77;383851;-76
2021/01/14 11:02:06;;;;;;;3.13;1.23;;;;;;;1.51;100.00;99342.94;3799446;77;389874;-76
2021/01/14 11:07:27;;;;;;;1.10;0.60;;;;;;;1.50;100.00;99337.28;3800529;77;387783;-76
2021/01/14 11:13:06;;;;;;;0.80;0.50;;;;;;;1.42;100.00;99331.92;3800289;77;383892;-76
2021/01/14 11:18:27;;;;;;;0.90;0.67;;;;;;;1.47;100.00;99335.23;3799946;77;383556;-76
2021/01/14 11:23:49;;;;;;;0.80;0.57;;;;;;;1.42;100.00;99332.73;3800053;77;383804;-77
2021/01/14 11:29:12;;;;;;;1.03;0.77;;;;;;;1.41;100.00;99341.20;3800037;77;383841;-77
2021/01/14 11:34:33;;;;;;;0.80;0.50;;;;;;;1.68;99.70;99331.34;3800389;77;383575;-76
2021/01/14 11:39:54;;;;;;;0.90;0.70;;;;;;;1.91;99.30;99330.38;3799974;77;385746;-76
2021/01/14 11:45:15;;;;;;;0.80;0.50;;;;;;;1.94;100.00;99331.08;3800482;77;383804;-77
2021/01/14 11:50:37;;;;;;;0.90;0.70;;;;;;;1.89;98.64;99321.78;3800201;77;383600;-76
2021/01/14 11:56:00;;;;;;;1.00;0.80;;;;;;;1.82;100.00;99318.84;3799901;77;387799;-76
2021/01/14 12:01:24;;;;;;;0.90;0.60;;;;;;;1.91;100.00;99325.73;3772872;77;383621;-77
2021/01/14 12:06:48;;;;;;;0.90;0.60;;;;;;;1.98;100.00;99324.61;3773114;77;383820;-76
2021/01/14 12:12:09;;;;;;;0.80;0.40;;;;;;;1.75;100.00;99319.38;3800909;77;383588;-76
2021/01/14 12:17:30;;;;;;;2.00;0.90;;;;;;;1.69;100.00;99315.88;3799843;77;383824;-76
2021/01/14 12:22:52;;;;;;;0.80;0.40;;;;;;;1.84;100.00;99317.37;3800049;77;383584;-76
2021/01/14 12:28:13;;;;;;;2.37;1.40;;;;;;;1.97;100.00;99320.34;3799203;77;394017;-76
2021/01/14 12:33:35;;;;;;;1.00;0.90;;;;;;;1.89;100.00;99323.14;3799449;77;392149;-76
2021/01/14 12:38:56;;;;;;;1.10;0.80;;;;;;;1.98;100.00;99319.77;3798990;77;391913;-75
2021/01/14 12:44:19;;;;;;;2.03;0.90;;;;;;;1.90;100.00;99320.66;3798773;77;394004;-76
2021/01/14 12:49:40;;;;;;;0.90;0.60;;;;;;;2.07;100.00;99328.02;3799544;77;388010;-76
2021/01/14 12:55:01;;;;;;;5.90;2.40;;;;;;;2.15;99.69;99326.34;3798950;77;396300;-76
2021/01/14 13:00:23;;;;;;;0.80;0.50;;;;;;;2.08;99.73;99326.89;3800044;77;383644;-76
2021/01/14 13:05:49;;;;;;;0.90;0.60;;;;;;;2.11;99.26;99329.48;3800001;77;383824;-76
2021/01/14 13:11:13;;;;;;;1.00;0.80;;;;;;;2.22;98.41;99331.42;3799800;77;387743;-75
2021/01/14 13:16:42;;;;;;;1.43;1.23;;;;;;;2.07;99.35;99331.31;3800833;77;383793;-75
2021/01/14 13:22:06;;;;;;;1.67;1.17;;;;;;;2.03;100.00;99346.12;3799226;77;394975;-75
2021/01/14 13:27:27;;;;;;;2.87;0.97;;;;;;;1.89;100.00;99347.55;3799099;77;396108;-76
2021/01/14 13:32:49;;;;;;;0.80;0.60;;;;;;;2.06;100.00;99346.78;3800142;77;383840;-75
2021/01/14 13:38:12;;;;;;;0.90;0.60;;;;;;;2.01;100.00;99344.87;3800133;77;383580;-75
2021/01/14 13:43:35;;;;;;;0.80;0.40;;;;;;;2.07;100.00;99350.30;3800036;77;383563;-75
2021/01/14 13:49:00;;;;;;;1.07;0.97;;;;;;;2.08;100.00;99346.47;3799520;77;391861;-75
2021/01/14 13:54:21;;;;;;;1.10;1.00;;;;;;;2.08;100.00;99355.38;3799652;77;384176;-75
2021/01/14 13:59:43;;;;;;;0.80;0.50;;;;;;;2.25;100.00;99354.40;3800190;77;383576;-75
2021/01/14 14:05:06;;;;;;;0.90;0.60;;;;;;;2.31;98.76;99355.17;3800023;77;383584;-76
2021/01/14 14:10:30;;;;;;;1.00;0.90;;;;;;;2.13;100.00;99353.02;3799519;77;388034;-75
2021/01/14 14:15:51;;;;;;;1.67;0.77;;;;;;;2.20;100.00;99358.13;3799384;77;389835;-75
2021/01/14 14:21:17;;;;;;;3.43;2.10;;;;;;;2.11;100.00;99362.05;3799202;77;383867;-74
2021/01/14 14:26:38;;;;;;;1.30;0.80;;;;;;;2.16;100.00;99361.27;3800252;77;391915;-74
2021/01/14 14:31:59;;;;;;;9.93;1.83;;;;;;;2.46;95.84;99361.31;3799057;77;396083;-74
2021/01/14 14:37:20;;;;;;;0.97;0.83;;;;;;;2.34;97.26;99361.88;3772870;77;387806;-74
2021/01/14 14:42:43;;;;;;;0.90;0.60;;;;;;;2.28;99.51;99363.20;3799931;77;383839;-74
2021/01/14 14:48:04;;;;;;;1.37;1.00;;;;;;;2.17;100.00;99368.86;3799697;77;383567;-74
2021/01/14 14:53:26;;;;;;;1.23;1.13;;;;;;;2.33;98.17;99377.93;3800010;77;383831;-74
2021/01/14 14:58:49;;;;;;;1.40;1.23;;;;;;;2.14;99.41;99379.80;3799297;77;394995;-74
2021/01/14 15:04:14;;;;;;;0.90;0.63;;;;;;;2.14;99.39;99381.73;3800065;77;385729;-74
2021/01/14 15:09:34;;;;;;;1.00;0.60;;;;;;;2.03;100.00;99381.94;3799689;77;387789;-74
2021/01/14 15:14:55;;;;;;;5.23;4.83;;;;;;;1.92;100.00;99380.80;3798821;77;396421;-74
2021/01/14 15:20:18;;;;;;;1.17;0.73;;;;;;;1.87;100.00;99391.30;3800308;76;390854;-74
2021/01/14 15:25:40;;;;;;;1.73;1.07;;;;;;;1.76;100.00;99400.97;3771987;77;394301;-75
2021/01/14 15:31:01;;;;;;;1.00;0.90;;;;;;;1.75;100.00;99407.52;3799948;77;383559;-74
2021/01/14 15:36:24;;;;;;;2.50;0.97;;;;;;;1.71;100.00;99407.16;3799843;76;394212;-75
2021/01/14 15:41:45;;;;;;;0.90;0.70;;;;;;;1.60;100.00;99410.07;3800938;77;383797;-74
2021/01/14 15:47:06;;;;;;;1.50;0.80;;;;;;;1.64;100.00;99414.50;3772538;77;389855;-74
2021/01/14 15:52:28;;;;;;;1.20;0.80;;;;;;;1.55;100.00;99412.97;3799031;77;393986;-74
2021/01/14 15:57:51;;;;;;;3.23;2.70;;;;;;;1.34;100.00;99424.39;3798933;77;396101;-75
2021/01/14 16:03:12;;;;;;;4.20;1.43;;;;;;;1.26;100.00;99425.25;3799570;76;396352;-74
2021/01/14 16:08:34;;;;;;;1.00;0.77;;;;;;;1.22;100.00;99424.89;3799890;77;383835;-74
2021/01/14 16:13:55;;;;;;;3.37;1.33;;;;;;;1.20;100.00;99418.99;3799594;77;383831;-74
2021/01/14 16:19:22;;;;;;;0.80;0.40;;;;;;;1.25;100.00;99423.66;3799820;77;383608;-74
2021/01/14 16:24:44;;;;;;;0.90;0.40;;;;;;;1.20;100.00;99424.41;3799755;77;383614;-74
2021/01/14 16:30:06;;;;;;;0.97;0.87;;;;;;;1.21;100.00;99422.72;3799990;77;383581;-74
2021/01/14 16:35:27;;;;;;;1.10;0.90;;;;;;;1.19;100.00;99419.56;3779308;77;392166;-73
2021/01/14 16:40:49;;;;;;;1.03;0.93;;;;;;;1.16;100.00;99433.77;3799870;77;385691;-74
2021/01/14 16:46:10;;;;;;;5.27;2.70;;;;;;;1.14;100.00;99431.94;3799484;77;383580;-73
2021/01/14 16:51:31;;;;;;;3.00;2.10;;;;;;;1.15;100.00;99435.45;3798940;77;396170;-74
2021/01/14 16:56:53;;;;;;;2.63;1.60;;;;;;;1.14;100.00;99432.52;3798912;77;396340;-74
2021/01/14 17:02:16;;;;;;;7.40;1.13;;;;;;;1.08;100.00;99435.97;3799492;77;391925;-74
2021/01/14 17:07:37;;;;;;;2.73;2.53;;;;;;;1.07;100.00;99439.80;3799834;77;396163;-74
2021/01/14 17:13:00;;;;;;;4.60;2.80;;;;;;;1.10;100.00;99433.73;3798914;77;396032;-74
2021/01/14 17:18:21;;;;;;;0.90;0.73;;;;;;;1.21;100.00;99424.07;3799990;77;383627;-74
2021/01/14 17:23:44;;;;;;;2.23;2.10;;;;;;;1.10;100.00;99431.02;3772120;77;396093;-73
2021/01/14 17:29:06;;;;;;;4.33;2.60;;;;;;;1.17;100.00;99427.80;3799740;76;396044;-74
2021/01/14 17:34:29;;;;;;;9.03;5.60;;;;;;;1.10;100.00;99428.31;3799568;77;386720;-74
2021/01/14 17:39:50;;;;;;;1.20;1.10;;;;;;;0.97;100.00;99423.92;3799721;77;383576;-73
2021/01/14 17:45:12;;;;;;;4.17;2.80;;;;;;;0.90;100.00;99416.88;3798603;77;396300;-74
2021/01/14 17:50:33;;;;;;;2.20;2.07;;;;;;;0.90;100.00;99418.80;3799068;77;396130;-74
2021/01/14 17:55:54;;;;;;;2.70;1.50;;;;;;;0.91;100.00;99413.05;3798743;77;396060;-73
2021/01/14 18:01:16;;;;;;;2.77;1.60;;;;;;;0.89;100.00;99405.81;3798908;77;394029;-74
2021/01/14 18:06:38;;;;;;;12.27;4.03;;;;;;;0.99;100.00;99414.91;3798961;77;396072;-73
2021/01/14 18:12:01;;;;;;;1.73;1.63;;;;;;;0.97;100.00;99405.53;3800084;77;394007;-74
2021/01/14 18:17:24;;;;;;;2.80;2.50;;;;;;;0.87;100.00;99405.91;3799055;77;396198;-73
2021/01/14 18:22:45;;;;;;;6.33;3.50;;;;;;;0.84;100.00;99395.18;3798981;77;396327;-74
2021/01/14 18:28:08;;;;;;;2.07;0.97;;;;;;;0.83;100.00;99399.00;3799351;77;394221;-73
2021/01/14 18:33:31;;;;;;;2.73;2.00;;;;;;;0.88;100.00;99393.96;3799312;77;383568;-74
2021/01/14 18:38:52;;;;;;;2.03;1.87;;;;;;;0.82;100.00;99395.28;3799272;77;387774;-74
2021/01/14 18:44:14;;;;;;;2.17;1.97;;;;;;;0.82;100.00;99406.89;3798913;77;396320;-74
2021/01/14 18:49:38;;;;;;;1.63;1.53;;;;;;;0.78;100.00;99401.67;3799054;77;394190;-74
2021/01/14 18:55:00;;;;;;;2.30;2.10;;;;;;;0.75;100.00;99411.25;3798939;77;396083;-74
2021/01/14 19:00:22;;;;;;;3.83;2.63;;;;;;;0.77;100.00;99410.34;3798617;77;396095;-74
2021/01/14 19:05:43;;;;;;;1.47;1.37;;;;;;;0.75;100.00;99411.80;3799803;77;383862;-74
2021/01/14 19:11:04;;;;;;;3.03;2.73;;;;;;;0.75;100.00;99410.44;3799018;77;396028;-74
2021/01/14 19:16:26;;;;;;;2.23;1.93;;;;;;;0.74;100.00;99409.66;3799089;77;394025;-74
2021/01/14 19:21:48;;;;;;;3.43;2.90;;;;;;;0.73;100.00;99411.35;3798943;77;396101;-74
2021/01/14 19:27:09;;;;;;;2.70;2.30;;;;;;;0.71;100.00;99412.23;3771908;77;396242;-74
2021/01/14 19:32:37;;;;;;;7.33;3.57;;;;;;;0.71;100.00;99409.52;3799165;77;394061;-74
2021/01/14 19:37:58;;;;;;;3.37;2.77;;;;;;;0.68;100.00;99403.40;3798556;77;396382;-74
2021/01/14 19:43:19;;;;;;;5.57;2.30;;;;;;;0.65;100.00;99404.85;3798816;77;396308;-74
2021/01/14 19:48:41;;;;;;;1.30;1.20;;;;;;;0.64;100.00;99401.13;3799141;77;391953;-74
2021/01/14 19:54:04;;;;;;;3.97;2.43;;;;;;;0.71;100.00;99401.41;3798626;77;396118;-74
2021/01/14 19:59:26;;;;;;;4.03;1.40;;;;;;;0.71;100.00;99393.28;3798962;77;394198;-74
2021/01/14 20:04:50;;;;;;;2.90;2.80;;;;;;;0.65;100.00;99389.19;3798952;77;396105;-74
2021/01/14 20:10:12;;;;;;;18.10;4.37;;;;;;;0.53;100.00;99393.13;3798708;77;396148;-74
2021/01/14 20:15:35;;;;;;;10.60;4.57;;;;;;;0.57;100.00;99389.45;3799298;77;393931;-74
2021/01/14 20:20:56;;;;;;;2.37;1.90;;;;;;;0.45;100.00;99386.63;3799080;77;391960;-74
2021/01/14 20:26:18;;;;;;;11.33;4.63;;;;;;;0.38;100.00;99385.57;3798864;77;400196;-74
2021/01/14 20:31:39;;;;;;;2.40;1.80;;;;;;;0.34;100.00;99389.48;3798963;77;392932;-75
2021/01/14 20:37:13;;;;;;;2.97;2.87;;;;;;;0.29;100.00;99393.70;3799069;77;391873;-75
2021/01/14 20:42:35;;;;;;;8.90;3.70;;;;;;;0.20;100.00;99389.46;3800238;76;396111;-74
2021/01/14 20:47:56;;;;;;;1.47;1.37;;;;;;;0.15;100.00;99392.36;3799818;76;396025;-75
2021/01/14 20:53:17;;;;;;;1.20;0.80;;;;;;;0.09;100.00;99389.57;3772761;77;388847;-74
2021/01/14 20:58:38;;;;;;;4.53;3.60;;;;;;;0.07;100.00;99403.42;3799120;77;396092;-74
2021/01/14 21:03:59;;;;;;;5.40;2.87;;;;;;;0.04;100.00;99398.65;3771942;77;396290;-75
2021/01/14 21:09:22;;;;;;;1.97;1.87;;;;;;;0.01;100.00;99397.96;3798933;77;393230;-75
2021/01/14 21:14:43;;;;;;;2.13;1.90;;;;;;;0.00;100.00;99401.00;3772391;77;384009;-75
2021/01/14 21:20:05;;;;;;;7.30;4.07;;;;;;;0.21;100.00;99399.16;3799846;77;396302;-75
2021/01/14 21:25:27;;;;;;;6.57;1.67;;;;;;;-0.02;100.00;99405.92;3772295;77;396339;-75
2021/01/14 21:30:49;;;;;;;1.57;1.47;;;;;;;0.11;100.00;99405.73;3799135;77;392136;-74
2021/01/14 21:36:11;;;;;;;3.97;1.33;;;;;;;0.07;100.00;99407.48;3799268;77;383769;-75
2021/01/14 21:41:34;;;;;;;2.00;1.10;;;;;;;-0.11;100.00;99405.69;3799604;77;393957;-75
2021/01/14 21:46:55;;;;;;;1.50;1.40;;;;;;;-0.11;100.00;99415.16;3799494;77;396032;-74
2021/01/14 21:52:17;;;;;;;19.00;10.40;;;;;;;-0.13;100.00;99406.02;3798473;77;404409;-75
2021/01/14 21:57:40;;;;;;;3.90;3.53;;;;;;;-0.16;100.00;99402.59;3798885;77;396339;-74
2021/01/14 22:03:01;;;;;;;4.30;3.93;;;;;;;-0.22;100.00;99403.89;3797288;77;396117;-74
2021/01/14 22:08:22;;;;;;;2.77;2.57;;;;;;;-0.23;100.00;99402.87;3797045;77;396135;-75
2021/01/14 22:13:45;;;;;;;2.53;2.33;;;;;;;-0.24;100.00;99403.98;3797561;77;396089;-75
2021/01/14 22:19:08;;;;;;;2.43;2.33;;;;;;;-0.23;100.00;99400.17;3799119;77;396020;-74
2021/01/14 22:24:29;;;;;;;3.07;2.60;;;;;;;-0.27;100.00;99404.07;3799210;77;396032;-74
2021/01/14 22:29:50;;;;;;;3.33;3.03;;;;;;;-0.19;100.00;99405.97;3798986;77;396411;-75
2021/01/14 22:35:14;;;;;;;1.63;1.53;;;;;;;-0.27;100.00;99401.38;3799307;77;391887;-74
2021/01/14 22:40:37;;;;;;;6.67;3.67;;;;;;;-0.28;100.00;99401.13;3799036;77;395267;-74
2021/01/14 22:46:04;;;;;;;3.23;1.10;;;;;;;-0.28;100.00;99405.19;3799235;77;394999;-74
2021/01/14 22:51:28;;;;;;;3.00;2.23;;;;;;;-0.30;100.00;99393.89;3798973;77;396120;-75
2021/01/14 22:56:49;;;;;;;1.30;1.20;;;;;;;-0.28;100.00;99397.08;3772821;77;392239;-74
2021/01/14 23:02:12;;;;;;;1.37;1.27;;;;;;;-0.30;100.00;99391.19;3772750;77;383572;-74
2021/01/14 23:07:33;;;;;;;1.00;0.80;;;;;;;-0.25;100.00;99395.63;3799613;77;391917;-74
2021/01/14 23:12:54;;;;;;;1.23;1.13;;;;;;;-0.28;100.00;99391.67;3772680;77;385643;-75
2021/01/14 23:18:15;;;;;;;1.50;1.40;;;;;;;-0.37;100.00;99393.59;3773044;77;383576;-75
2021/01/14 23:23:36;;;;;;;1.23;1.03;;;;;;;-0.36;100.00;99388.42;3772559;77;391895;-74
2021/01/14 23:28:59;;;;;;;1.80;1.63;;;;;;;-0.53;100.00;99383.61;3799023;77;396342;-75
2021/01/14 23:34:21;;;;;;;1.93;1.17;;;;;;;-0.67;100.00;99386.48;3798698;77;396108;-75
2021/01/14 23:39:43;;;;;;;2.40;0.90;;;;;;;-0.82;100.00;99391.55;3799719;77;388806;-75
2021/01/14 23:45:05;;;;;;;2.23;1.37;;;;;;;-0.91;100.00;99392.67;3772518;77;387759;-75
2021/01/14 23:50:26;;;;;;;1.43;1.33;;;;;;;-0.95;100.00;99395.21;3772580;77;396327;-75
2021/01/14 23:55:48;;;;;;;4.00;1.17;;;;;;;-0.96;100.00;99390.92;3798739;77;396080;-75
